createdAt,value
2023-03-01T00:00:47.458Z,171.95
2023-03-01T00:01:37.526Z,169.86
2023-03-01T00:02:27.607Z,165.36
2023-03-01T00:03:17.620Z,169.87
2023-03-01T00:04:07.697Z,170.17
2023-03-01T00:04:57.723Z,170.46
2023-03-01T00:05:47.764Z,173.61
2023-03-01T00:06:37.794Z,170.81
2023-03-01T00:07:27.822Z,170.18
2023-03-01T00:08:17.900Z,167.26
2023-03-01T00:09:07.990Z,169.54
2023-03-01T00:09:58.024Z,170.50
2023-03-01T00:10:48.099Z,167.88
2023-03-01T00:11:38.146Z,164.64
2023-03-01T00:12:28.173Z,168.38
2023-03-01T00:13:18.211Z,165.01
2023-03-01T00:14:08.512Z,164.14
2023-03-01T00:14:58.535Z,165.19
2023-03-01T00:15:48.589Z,167.36
2023-03-01T00:16:38.654Z,166.32
2023-03-01T00:17:28.697Z,162.86
2023-03-01T00:18:18.771Z,165.31
2023-03-01T00:19:08.863Z,166.38
2023-03-01T00:19:58.880Z,166.45
2023-03-01T00:20:48.947Z,163.84
2023-03-01T00:21:39.045Z,163.99
2023-03-01T00:22:29.057Z,168.30
2023-03-01T00:23:19.348Z,166.77
2023-03-01T00:24:09.389Z,164.32
2023-03-01T00:24:59.421Z,165.83
2023-03-01T00:25:49.473Z,164.30
2023-03-01T00:26:39.544Z,162.99
2023-03-01T00:27:29.612Z,165.29
2023-03-01T00:28:19.692Z,164.91
2023-03-01T00:29:09.753Z,166.74
2023-03-01T00:29:59.778Z,163.65
2023-03-01T00:30:49.950Z,164.85
2023-03-01T00:31:39.921Z,165.01
2023-03-01T00:32:30.200Z,164.61
2023-03-01T00:33:20.291Z,162.47
2023-03-01T00:34:10.316Z,162.90
2023-03-01T00:35:00.369Z,165.14
2023-03-01T00:35:50.448Z,163.98
2023-03-01T00:36:40.584Z,161.05
2023-03-01T00:37:30.491Z,165.84
2023-03-01T00:38:20.547Z,161.75
2023-03-01T00:39:10.586Z,165.32
2023-03-01T00:40:00.634Z,161.08
2023-03-01T00:40:50.665Z,161.36
2023-03-01T00:41:40.741Z,161.21
2023-03-01T00:42:30.805Z,165.10
2023-03-01T00:43:20.886Z,159.63
2023-03-01T00:44:10.970Z,161.26
2023-03-01T00:45:00.977Z,160.44
2023-03-01T00:45:51.074Z,158.94
2023-03-01T00:46:41.136Z,159.77
2023-03-01T00:47:31.093Z,158.10
2023-03-01T00:48:21.176Z,158.39
2023-03-01T00:49:11.237Z,161.01
2023-03-01T00:50:01.277Z,160.18
2023-03-01T00:50:51.302Z,159.84
2023-03-01T00:51:41.374Z,156.07
2023-03-01T00:52:31.444Z,158.27
2023-03-01T00:53:21.544Z,159.83
2023-03-01T00:54:11.615Z,157.48
2023-03-01T00:55:01.865Z,157.13
2023-03-01T00:55:51.890Z,157.71
2023-03-01T00:56:41.941Z,159.92
2023-03-01T00:57:32.003Z,157.32
2023-03-01T00:58:22.095Z,155.90
2023-03-01T00:59:12.129Z,155.74
2023-03-01T01:00:02.165Z,152.96
2023-03-01T01:00:52.199Z,156.12
2023-03-01T01:01:42.319Z,156.71
2023-03-01T01:02:32.357Z,158.63
2023-03-01T01:03:22.377Z,159.28
2023-03-01T01:04:12.420Z,156.29
2023-03-01T01:05:02.470Z,155.34
2023-03-01T01:05:52.473Z,155.73
2023-03-01T01:06:42.516Z,158.41
2023-03-01T01:07:32.554Z,157.40
2023-03-01T01:08:22.633Z,159.86
2023-03-01T01:09:12.700Z,160.02
2023-03-01T01:10:02.717Z,162.74
2023-03-01T01:10:52.749Z,160.20
2023-03-01T01:11:42.819Z,155.33
2023-03-01T01:12:32.895Z,160.38
2023-03-01T01:13:22.978Z,157.09
2023-03-01T01:14:13.010Z,157.97
2023-03-01T01:15:03.051Z,159.98
2023-03-01T01:15:53.152Z,157.57
2023-03-01T01:16:43.204Z,152.85
2023-03-01T01:17:33.448Z,160.68
2023-03-01T01:18:23.531Z,157.78
2023-03-01T01:19:13.573Z,157.35
2023-03-01T01:20:03.613Z,158.57
2023-03-01T01:20:53.644Z,155.46
2023-03-01T01:21:43.677Z,158.11
2023-03-01T01:22:33.754Z,157.67
2023-03-01T01:23:23.831Z,157.17
2023-03-01T01:24:13.884Z,153.26
2023-03-01T01:25:03.950Z,157.45
2023-03-01T01:25:53.942Z,155.31
2023-03-01T01:26:44.276Z,155.99
2023-03-01T01:27:34.305Z,156.07
2023-03-01T01:28:24.375Z,156.26
2023-03-01T01:29:14.419Z,156.48
2023-03-01T01:30:04.455Z,156.13
2023-03-01T01:30:54.500Z,158.69
2023-03-01T01:31:44.560Z,156.96
2023-03-01T01:32:34.573Z,158.50
2023-03-01T01:33:24.692Z,154.30
2023-03-01T01:34:14.697Z,156.51
2023-03-01T01:35:04.731Z,154.16
2023-03-01T01:35:54.854Z,151.76
2023-03-01T01:36:44.852Z,156.08
2023-03-01T01:37:34.877Z,154.53
2023-03-01T01:38:24.957Z,153.81
2023-03-01T01:39:15.011Z,153.93
2023-03-01T01:40:05.096Z,154.74
2023-03-01T01:40:55.139Z,154.22
2023-03-01T01:41:45.201Z,156.53
2023-03-01T01:42:35.527Z,151.55
2023-03-01T01:43:25.602Z,153.70
2023-03-01T01:44:15.660Z,152.07
2023-03-01T01:45:05.698Z,152.37
2023-03-01T01:45:55.735Z,153.26
2023-03-01T01:46:45.946Z,151.36
2023-03-01T01:47:35.870Z,153.92
2023-03-01T01:48:25.951Z,155.17
2023-03-01T01:49:16.022Z,159.21
2023-03-01T01:50:06.041Z,160.18
2023-03-01T01:50:56.074Z,162.73
2023-03-01T01:51:46.409Z,160.19
2023-03-01T01:52:36.435Z,160.98
2023-03-01T01:53:26.503Z,161.54
2023-03-01T01:54:16.552Z,164.65
2023-03-01T01:55:06.597Z,165.03
2023-03-01T01:55:56.619Z,163.63
2023-03-01T01:56:46.722Z,162.99
2023-03-01T01:57:36.726Z,161.87
2023-03-01T01:58:26.805Z,161.60
2023-03-01T01:59:16.847Z,160.54
2023-03-01T02:00:06.882Z,161.33
2023-03-01T02:00:56.917Z,155.89
2023-03-01T02:01:46.999Z,160.30
2023-03-01T02:02:37.269Z,158.88
2023-03-01T02:03:27.259Z,160.22
2023-03-01T02:04:17.192Z,163.61
2023-03-01T02:05:07.228Z,163.45
2023-03-01T02:05:57.271Z,159.38
2023-03-01T02:06:47.305Z,159.42
2023-03-01T02:07:37.620Z,162.69
2023-03-01T02:08:27.686Z,163.26
2023-03-01T02:09:17.723Z,165.15
2023-03-01T02:10:07.756Z,163.63
2023-03-01T02:10:57.785Z,165.09
2023-03-01T02:11:47.869Z,164.51
2023-03-01T02:12:37.916Z,165.83
2023-03-01T02:13:27.997Z,162.93
2023-03-01T02:14:18.035Z,161.61
2023-03-01T02:15:08.065Z,159.90
2023-03-01T02:15:58.108Z,165.31
2023-03-01T02:16:48.173Z,164.23
2023-03-01T02:17:38.204Z,164.92
2023-03-01T02:18:28.296Z,166.39
2023-03-01T02:19:18.326Z,165.15
2023-03-01T02:20:08.365Z,166.32
2023-03-01T02:20:58.396Z,167.25
2023-03-01T02:21:48.471Z,162.61
2023-03-01T02:22:38.606Z,162.08
2023-03-01T02:23:28.569Z,163.87
2023-03-01T02:24:20.232Z,165.07
2023-03-01T02:25:08.890Z,163.88
2023-03-01T02:25:58.911Z,168.80
2023-03-01T02:26:48.993Z,169.32
2023-03-01T02:27:39.022Z,167.98
2023-03-01T02:28:29.124Z,166.55
2023-03-01T02:29:19.149Z,169.45
2023-03-01T02:30:09.191Z,165.28
2023-03-01T02:30:59.407Z,163.34
2023-03-01T02:31:49.399Z,167.33
2023-03-01T02:32:39.325Z,164.75
2023-03-01T02:33:29.411Z,166.74
2023-03-01T02:34:19.463Z,168.00
2023-03-01T02:35:09.490Z,165.32
2023-03-01T02:35:59.525Z,166.16
2023-03-01T02:36:49.623Z,165.50
2023-03-01T02:37:39.639Z,164.02
2023-03-01T02:38:29.728Z,164.04
2023-03-01T02:39:19.770Z,165.65
2023-03-01T02:40:09.815Z,166.51
2023-03-01T02:40:59.841Z,165.91
2023-03-01T02:41:49.894Z,166.07
2023-03-01T02:42:39.916Z,166.88
2023-03-01T02:43:29.966Z,166.37
2023-03-01T02:44:20.044Z,166.43
2023-03-01T02:45:10.108Z,166.48
2023-03-01T02:46:00.135Z,164.61
2023-03-01T02:46:50.255Z,164.89
2023-03-01T02:47:40.255Z,168.88
2023-03-01T02:48:30.302Z,165.38
2023-03-01T02:49:20.357Z,165.98
2023-03-01T02:50:10.447Z,167.66
2023-03-01T02:51:00.463Z,166.93
2023-03-01T02:51:50.562Z,168.17
2023-03-01T02:52:41.868Z,166.16
2023-03-01T02:53:30.687Z,171.55
2023-03-01T02:54:20.739Z,168.95
2023-03-01T02:55:10.779Z,171.48
2023-03-01T02:56:00.804Z,171.69
2023-03-01T02:56:50.896Z,170.82
2023-03-01T02:57:40.926Z,167.93
2023-03-01T02:58:31.015Z,165.19
2023-03-01T02:59:21.058Z,164.29
2023-03-01T03:00:11.112Z,167.72
2023-03-01T03:01:01.161Z,167.38
2023-03-01T03:01:51.157Z,166.86
2023-03-01T03:02:41.486Z,168.44
2023-03-01T03:03:31.609Z,171.49
2023-03-01T03:04:21.637Z,168.36
2023-03-01T03:05:11.681Z,174.51
2023-03-01T03:06:01.703Z,173.41
2023-03-01T03:06:51.803Z,174.25
2023-03-01T03:07:41.815Z,171.56
2023-03-01T03:08:31.866Z,175.18
2023-03-01T03:09:21.900Z,177.70
2023-03-01T03:10:11.938Z,178.13
2023-03-01T03:11:01.969Z,174.24
2023-03-01T03:11:52.054Z,177.36
2023-03-01T03:12:42.081Z,175.59
2023-03-01T03:13:32.156Z,175.34
2023-03-01T03:14:22.207Z,177.26
2023-03-01T03:15:12.236Z,179.22
2023-03-01T03:16:02.390Z,176.96
2023-03-01T03:16:52.356Z,173.97
2023-03-01T03:17:43.344Z,171.62
2023-03-01T03:18:32.426Z,177.11
2023-03-01T03:19:22.482Z,175.19
2023-03-01T03:20:12.519Z,178.21
2023-03-01T03:21:02.547Z,175.18
2023-03-01T03:21:52.622Z,175.03
2023-03-01T03:22:42.658Z,175.61
2023-03-01T03:23:32.714Z,177.17
2023-03-01T03:24:22.743Z,177.87
2023-03-01T03:25:12.806Z,177.70
2023-03-01T03:26:02.824Z,177.20
2023-03-01T03:26:52.860Z,176.39
2023-03-01T03:27:42.889Z,177.94
2023-03-01T03:28:32.976Z,179.31
2023-03-01T03:29:23.017Z,179.40
2023-03-01T03:30:13.070Z,174.77
2023-03-01T03:31:03.085Z,175.38
2023-03-01T03:31:53.325Z,171.91
2023-03-01T03:32:43.163Z,176.20
2023-03-01T03:33:33.250Z,174.48
2023-03-01T03:34:23.309Z,176.63
2023-03-01T03:35:13.362Z,175.07
2023-03-01T03:36:03.573Z,175.86
2023-03-01T03:36:53.638Z,177.32
2023-03-01T03:37:43.681Z,176.77
2023-03-01T03:38:33.723Z,173.56
2023-03-01T03:39:23.770Z,175.33
2023-03-01T03:40:13.805Z,170.10
2023-03-01T03:41:03.851Z,172.87
2023-03-01T03:41:53.926Z,173.94
2023-03-01T03:42:43.954Z,173.24
2023-03-01T03:43:34.003Z,172.21
2023-03-01T03:44:24.048Z,172.72
2023-03-01T03:45:14.087Z,170.32
2023-03-01T03:46:04.167Z,168.84
2023-03-01T03:46:54.172Z,168.69
2023-03-01T03:47:44.223Z,168.19
2023-03-01T03:48:34.288Z,168.91
2023-03-01T03:49:24.337Z,166.62
2023-03-01T03:50:14.383Z,169.67
2023-03-01T03:51:04.433Z,166.58
2023-03-01T03:51:54.498Z,167.41
2023-03-01T03:52:44.566Z,164.71
2023-03-01T03:53:34.631Z,166.49
2023-03-01T03:54:24.674Z,166.72
2023-03-01T03:55:14.711Z,166.51
2023-03-01T03:56:06.536Z,167.65
2023-03-01T03:56:54.794Z,168.38
2023-03-01T03:57:44.819Z,168.61
2023-03-01T03:58:34.862Z,168.52
2023-03-01T03:59:24.916Z,168.79
2023-03-01T04:00:14.958Z,169.63
2023-03-01T04:01:04.999Z,168.32
2023-03-01T04:01:55.096Z,167.15
2023-03-01T04:02:45.159Z,167.77
2023-03-01T04:03:35.211Z,166.28
2023-03-01T04:04:25.235Z,167.99
2023-03-01T04:05:15.259Z,168.03
2023-03-01T04:06:05.301Z,166.38
2023-03-01T04:06:55.335Z,165.27
2023-03-01T04:07:45.364Z,166.90
2023-03-01T04:08:35.444Z,167.21
2023-03-01T04:09:25.496Z,165.85
2023-03-01T04:10:15.525Z,165.46
2023-03-01T04:11:05.559Z,166.78
2023-03-01T04:11:55.601Z,164.24
2023-03-01T04:12:45.644Z,164.62
2023-03-01T04:13:35.680Z,163.44
2023-03-01T04:14:25.734Z,165.75
2023-03-01T04:15:15.770Z,161.94
2023-03-01T04:16:05.867Z,162.22
2023-03-01T04:16:55.931Z,160.73
2023-03-01T04:17:45.947Z,160.90
2023-03-01T04:18:36.281Z,159.94
2023-03-01T04:19:26.399Z,157.59
2023-03-01T04:20:16.416Z,158.62
2023-03-01T04:21:06.448Z,157.77
2023-03-01T04:21:56.490Z,161.80
2023-03-01T04:22:46.528Z,160.90
2023-03-01T04:23:36.612Z,160.63
2023-03-01T04:24:26.657Z,160.72
2023-03-01T04:25:16.749Z,162.39
2023-03-01T04:26:06.785Z,158.40
2023-03-01T04:26:56.821Z,161.68
2023-03-01T04:27:46.869Z,162.82
2023-03-01T04:28:36.921Z,164.99
2023-03-01T04:29:26.960Z,163.18
2023-03-01T04:30:16.995Z,160.25
2023-03-01T04:31:08.526Z,161.32
2023-03-01T04:31:57.596Z,158.86
2023-03-01T04:32:47.383Z,161.19
2023-03-01T04:33:37.429Z,162.51
2023-03-01T04:34:27.476Z,161.67
2023-03-01T04:35:17.535Z,159.00
2023-03-01T04:36:07.699Z,161.82
2023-03-01T04:36:57.604Z,158.76
2023-03-01T04:37:47.639Z,161.93
2023-03-01T04:38:37.713Z,162.28
2023-03-01T04:39:27.758Z,164.74
2023-03-01T04:40:17.811Z,164.62
2023-03-01T04:41:07.844Z,163.30
2023-03-01T04:41:57.878Z,162.77
2023-03-01T04:42:47.908Z,161.64
2023-03-01T04:43:37.954Z,161.76
2023-03-01T04:44:28.006Z,162.15
2023-03-01T04:45:18.083Z,162.97
2023-03-01T04:46:08.155Z,160.80
2023-03-01T04:46:58.192Z,164.20
2023-03-01T04:47:48.243Z,166.63
2023-03-01T04:48:38.268Z,168.79
2023-03-01T04:49:28.346Z,166.75
2023-03-01T04:50:18.342Z,166.94
2023-03-01T04:51:08.409Z,168.84
2023-03-01T04:51:58.463Z,167.04
2023-03-01T04:52:48.497Z,169.84
2023-03-01T04:53:38.540Z,166.01
2023-03-01T04:54:28.581Z,168.20
2023-03-01T04:55:18.615Z,167.39
2023-03-01T04:56:08.688Z,163.67
2023-03-01T04:56:58.728Z,163.45
2023-03-01T04:57:48.759Z,164.73
2023-03-01T04:58:38.838Z,165.12
2023-03-01T04:59:28.889Z,164.69
2023-03-01T05:00:18.928Z,165.28
2023-03-01T05:01:08.955Z,164.88
2023-03-01T05:01:59.003Z,167.56
2023-03-01T05:02:49.076Z,167.79
2023-03-01T05:03:39.126Z,166.35
2023-03-01T05:04:29.179Z,166.67
2023-03-01T05:05:19.222Z,163.41
2023-03-01T05:06:09.259Z,161.75
2023-03-01T05:06:59.320Z,160.33
2023-03-01T05:07:49.335Z,161.12
2023-03-01T05:08:39.383Z,165.58
2023-03-01T05:09:29.431Z,167.14
2023-03-01T05:10:19.468Z,169.19
2023-03-01T05:11:09.504Z,169.45
2023-03-01T05:11:59.581Z,171.33
2023-03-01T05:12:49.617Z,170.61
2023-03-01T05:13:39.652Z,170.27
2023-03-01T05:14:29.694Z,168.24
2023-03-01T05:15:19.735Z,168.95
2023-03-01T05:16:09.824Z,166.21
2023-03-01T05:16:59.857Z,167.32
2023-03-01T05:17:49.888Z,164.54
2023-03-01T05:18:39.974Z,160.85
2023-03-01T05:19:30.040Z,163.57
2023-03-01T05:20:20.081Z,159.44
2023-03-01T05:21:10.112Z,161.15
2023-03-01T05:22:00.191Z,156.88
2023-03-01T05:22:50.206Z,157.74
2023-03-01T05:23:40.269Z,159.99
2023-03-01T05:24:30.313Z,162.98
2023-03-01T05:25:20.362Z,159.78
2023-03-01T05:26:25.937Z,162.92
2023-03-01T05:27:01.458Z,162.96
2023-03-01T05:27:50.500Z,163.11
2023-03-01T05:28:40.565Z,162.92
2023-03-01T05:29:30.667Z,163.89
2023-03-01T05:30:20.701Z,166.03
2023-03-01T05:31:10.906Z,165.81
2023-03-01T05:32:00.792Z,169.89
2023-03-01T05:32:51.040Z,173.30
2023-03-01T05:33:41.073Z,174.57
2023-03-01T05:34:31.215Z,173.54
2023-03-01T05:35:21.170Z,168.07
2023-03-01T05:36:11.317Z,167.96
2023-03-01T05:37:01.318Z,166.18
2023-03-01T05:37:51.465Z,169.84
2023-03-01T05:38:41.511Z,170.82
2023-03-01T05:39:31.559Z,169.72
2023-03-01T05:40:21.572Z,168.77
2023-03-01T05:41:11.590Z,167.29
2023-03-01T05:42:01.630Z,168.41
2023-03-01T05:42:51.669Z,171.74
2023-03-01T05:43:41.718Z,167.45
2023-03-01T05:44:31.810Z,167.77
2023-03-01T05:45:21.833Z,167.33
2023-03-01T05:46:11.998Z,166.24
2023-03-01T05:47:01.949Z,165.36
2023-03-01T05:47:51.994Z,165.89
2023-03-01T05:48:42.042Z,169.25
2023-03-01T05:49:32.093Z,162.24
2023-03-01T05:50:22.127Z,165.11
2023-03-01T05:51:12.179Z,163.39
2023-03-01T05:52:02.213Z,160.82
2023-03-01T05:52:52.357Z,157.43
2023-03-01T05:53:42.329Z,158.95
2023-03-01T05:54:32.410Z,161.79
2023-03-01T05:55:22.424Z,159.79
2023-03-01T05:56:12.490Z,163.10
2023-03-01T05:57:02.525Z,163.28
2023-03-01T05:57:52.566Z,168.10
2023-03-01T05:58:42.610Z,165.85
2023-03-01T05:59:32.673Z,169.04
2023-03-01T06:00:22.713Z,169.27
2023-03-01T06:01:12.755Z,163.42
2023-03-01T06:02:02.802Z,160.95
2023-03-01T06:02:52.840Z,160.01
2023-03-01T06:03:42.889Z,158.50
2023-03-01T06:04:33.006Z,159.01
2023-03-01T06:05:23.164Z,165.06
2023-03-01T06:06:13.074Z,164.48
2023-03-01T06:07:03.107Z,165.86
2023-03-01T06:07:53.148Z,160.29
2023-03-01T06:08:43.193Z,159.64
2023-03-01T06:09:33.258Z,155.24
2023-03-01T06:10:23.331Z,159.51
2023-03-01T06:11:13.371Z,155.66
2023-03-01T06:12:03.395Z,156.10
2023-03-01T06:12:53.479Z,155.58
2023-03-01T06:13:43.508Z,156.95
2023-03-01T06:14:33.604Z,154.53
2023-03-01T06:15:23.702Z,154.05
2023-03-01T06:16:13.751Z,154.70
2023-03-01T06:17:03.713Z,157.63
2023-03-01T06:17:53.791Z,160.31
2023-03-01T06:18:43.819Z,157.66
2023-03-01T06:19:33.913Z,158.48
2023-03-01T06:20:24.364Z,158.37
2023-03-01T06:21:14.002Z,157.74
2023-03-01T06:22:04.033Z,153.55
2023-03-01T06:22:54.080Z,156.12
2023-03-01T06:23:44.113Z,158.39
2023-03-01T06:24:34.182Z,158.23
2023-03-01T06:25:24.318Z,156.97
2023-03-01T06:26:14.362Z,157.01
2023-03-01T06:27:04.370Z,157.56
2023-03-01T06:27:54.449Z,156.63
2023-03-01T06:28:44.456Z,158.10
2023-03-01T06:29:34.507Z,158.31
2023-03-01T06:30:24.540Z,157.27
2023-03-01T06:31:14.679Z,154.90
2023-03-01T06:32:04.715Z,155.65
2023-03-01T06:32:54.721Z,156.46
2023-03-01T06:33:44.752Z,154.95
2023-03-01T06:34:34.867Z,159.01
2023-03-01T06:35:24.859Z,160.78
2023-03-01T06:36:14.890Z,163.22
2023-03-01T06:37:04.923Z,157.63
2023-03-01T06:37:54.978Z,154.77
2023-03-01T06:38:45.002Z,154.59
2023-03-01T06:39:35.146Z,157.09
2023-03-01T06:40:25.190Z,158.18
2023-03-01T06:41:15.226Z,157.52
2023-03-01T06:42:05.280Z,162.69
2023-03-01T06:42:55.315Z,163.50
2023-03-01T06:43:45.330Z,164.03
2023-03-01T06:44:35.394Z,162.51
2023-03-01T06:45:25.430Z,155.42
2023-03-01T06:46:15.542Z,157.33
2023-03-01T06:47:05.550Z,158.35
2023-03-01T06:47:55.661Z,158.59
2023-03-01T06:48:45.664Z,156.19
2023-03-01T06:49:35.742Z,157.61
2023-03-01T06:50:25.750Z,159.77
2023-03-01T06:51:15.779Z,159.00
2023-03-01T06:52:05.820Z,158.32
2023-03-01T06:52:55.959Z,158.99
2023-03-01T06:53:45.988Z,160.01
2023-03-01T06:54:36.074Z,159.50
2023-03-01T06:55:26.111Z,158.93
2023-03-01T06:56:16.149Z,158.65
2023-03-01T06:57:06.185Z,159.79
2023-03-01T06:57:56.251Z,159.60
2023-03-01T06:58:46.260Z,161.45
2023-03-01T06:59:36.405Z,156.69
2023-03-01T07:00:26.451Z,162.06
2023-03-01T07:01:16.535Z,158.44
2023-03-01T07:02:06.538Z,160.43
2023-03-01T07:02:56.667Z,161.96
2023-03-01T07:03:46.655Z,157.82
2023-03-01T07:04:36.764Z,159.90
2023-03-01T07:05:26.793Z,160.87
2023-03-01T07:06:16.836Z,156.28
2023-03-01T07:07:06.866Z,159.32
2023-03-01T07:07:56.914Z,159.93
2023-03-01T07:08:46.953Z,157.29
2023-03-01T07:09:37.027Z,157.12
2023-03-01T07:10:27.046Z,162.04
2023-03-01T07:11:17.118Z,162.35
2023-03-01T07:12:07.145Z,163.01
2023-03-01T07:12:57.233Z,162.52
2023-03-01T07:13:47.314Z,165.87
2023-03-01T07:14:37.326Z,165.30
2023-03-01T07:15:27.373Z,166.48
2023-03-01T07:16:17.440Z,163.88
2023-03-01T07:17:07.440Z,164.14
2023-03-01T07:17:57.517Z,163.25
2023-03-01T07:18:47.549Z,159.57
2023-03-01T07:19:37.666Z,159.90
2023-03-01T07:20:27.693Z,160.25
2023-03-01T07:21:17.765Z,158.66
2023-03-01T07:22:07.796Z,162.27
2023-03-01T07:22:57.843Z,161.12
2023-03-01T07:23:47.876Z,158.60
2023-03-01T07:24:37.984Z,156.34
2023-03-01T07:25:28.006Z,155.57
2023-03-01T07:26:18.088Z,155.67
2023-03-01T07:27:08.149Z,156.11
2023-03-01T07:27:58.182Z,152.77
2023-03-01T07:28:48.220Z,152.62
2023-03-01T07:29:38.351Z,154.46
2023-03-01T07:30:28.457Z,150.29
2023-03-01T07:31:18.419Z,151.56
2023-03-01T07:32:08.622Z,152.98
2023-03-01T07:32:58.736Z,151.37
2023-03-01T07:33:48.547Z,147.61
2023-03-01T07:34:38.644Z,146.18
2023-03-01T07:35:28.750Z,148.22
2023-03-01T07:36:18.730Z,146.45
2023-03-01T07:37:08.757Z,148.31
2023-03-01T07:37:58.841Z,151.70
2023-03-01T07:38:48.874Z,149.32
2023-03-01T07:39:39.019Z,150.69
2023-03-01T07:40:29.048Z,149.76
2023-03-01T07:41:19.126Z,151.50
2023-03-01T07:42:09.162Z,149.40
2023-03-01T07:42:59.211Z,146.82
2023-03-01T07:43:49.244Z,148.60
2023-03-01T07:44:39.308Z,147.81
2023-03-01T07:45:29.388Z,145.44
2023-03-01T07:46:19.450Z,147.13
2023-03-01T07:47:09.483Z,145.36
2023-03-01T07:47:59.523Z,143.74
2023-03-01T07:48:49.562Z,145.43
2023-03-01T07:49:39.629Z,143.42
2023-03-01T07:50:29.669Z,142.74
2023-03-01T07:51:21.209Z,143.66
2023-03-01T07:52:09.764Z,142.60
2023-03-01T07:52:59.820Z,143.76
2023-03-01T07:53:49.972Z,143.11
2023-03-01T07:54:40.048Z,143.95
2023-03-01T07:55:30.072Z,144.23
2023-03-01T07:56:20.149Z,143.92
2023-03-01T07:57:10.175Z,144.09
2023-03-01T07:58:00.264Z,142.19
2023-03-01T07:58:51.178Z,142.84
2023-03-01T07:59:40.380Z,144.98
2023-03-01T08:00:30.399Z,143.90
2023-03-01T08:01:20.466Z,141.22
2023-03-01T08:02:10.612Z,142.53
2023-03-01T08:03:00.515Z,141.31
2023-03-01T08:03:50.562Z,139.02
2023-03-01T08:04:40.769Z,140.60
2023-03-01T08:05:30.801Z,141.17
2023-03-01T08:06:20.880Z,135.97
2023-03-01T08:07:10.908Z,138.64
2023-03-01T08:08:00.960Z,138.04
2023-03-01T08:08:50.991Z,137.80
2023-03-01T08:09:41.048Z,135.87
2023-03-01T08:10:31.080Z,138.10
2023-03-01T08:11:21.378Z,138.08
2023-03-01T08:12:11.234Z,134.04
2023-03-01T08:13:01.270Z,135.10
2023-03-01T08:13:51.522Z,138.09
2023-03-01T08:14:41.393Z,136.46
2023-03-01T08:15:31.449Z,138.03
2023-03-01T08:16:21.601Z,138.55
2023-03-01T08:17:11.710Z,136.23
2023-03-01T08:18:01.773Z,136.85
2023-03-01T08:18:51.818Z,138.05
2023-03-01T08:19:41.873Z,139.01
2023-03-01T08:20:31.905Z,137.49
2023-03-01T08:21:21.984Z,137.86
2023-03-01T08:22:12.008Z,132.00
2023-03-01T08:23:02.063Z,132.56
2023-03-01T08:23:52.092Z,133.67
2023-03-01T08:24:42.145Z,132.56
2023-03-01T08:25:32.184Z,132.86
2023-03-01T08:26:22.229Z,134.75
2023-03-01T08:27:12.249Z,132.14
2023-03-01T08:28:02.293Z,133.01
2023-03-01T08:28:52.338Z,129.90
2023-03-01T08:29:42.384Z,134.41
2023-03-01T08:30:32.457Z,131.08
2023-03-01T08:31:22.646Z,127.91
2023-03-01T08:32:12.704Z,132.78
2023-03-01T08:33:02.713Z,133.04
2023-03-01T08:33:52.708Z,133.88
2023-03-01T08:34:42.816Z,135.26
2023-03-01T08:35:32.866Z,131.90
2023-03-01T08:36:22.902Z,131.10
2023-03-01T08:37:12.975Z,129.95
2023-03-01T08:38:03.073Z,128.40
2023-03-01T08:38:53.094Z,131.80
2023-03-01T08:39:43.188Z,131.52
2023-03-01T08:40:33.199Z,132.41
2023-03-01T08:41:23.248Z,129.66
2023-03-01T08:42:13.271Z,125.92
2023-03-01T08:43:03.340Z,127.45
2023-03-01T08:43:53.429Z,128.78
2023-03-01T08:44:45.908Z,127.04
2023-03-01T08:45:33.518Z,127.08
2023-03-01T08:46:23.565Z,127.29
2023-03-01T08:47:13.896Z,125.23
2023-03-01T08:48:03.961Z,124.73
2023-03-01T08:48:54.063Z,127.08
2023-03-01T08:49:44.092Z,121.82
2023-03-01T08:50:34.119Z,122.39
2023-03-01T08:51:24.189Z,123.72
2023-03-01T08:52:14.261Z,123.45
2023-03-01T08:53:04.337Z,119.48
2023-03-01T08:53:54.397Z,123.82
2023-03-01T08:54:44.460Z,128.55
2023-03-01T08:55:34.698Z,125.98
2023-03-01T08:56:24.745Z,125.86
2023-03-01T08:57:14.781Z,127.87
2023-03-01T08:58:04.829Z,130.88
2023-03-01T08:58:54.857Z,128.59
2023-03-01T08:59:44.933Z,126.94
2023-03-01T09:00:34.980Z,125.98
2023-03-01T09:01:25.019Z,125.31
2023-03-01T09:02:15.158Z,123.41
2023-03-01T09:03:05.155Z,126.77
2023-03-01T09:03:55.220Z,123.23
2023-03-01T09:04:45.271Z,125.43
2023-03-01T09:05:35.284Z,125.82
2023-03-01T09:06:25.327Z,128.78
2023-03-01T09:07:15.368Z,126.49
2023-03-01T09:08:05.488Z,127.40
2023-03-01T09:08:55.484Z,131.53
2023-03-01T09:09:45.550Z,132.40
2023-03-01T09:10:35.585Z,135.80
2023-03-01T09:11:25.647Z,139.63
2023-03-01T09:12:15.670Z,138.89
2023-03-01T09:13:05.711Z,138.48
2023-03-01T09:13:55.791Z,133.56
2023-03-01T09:14:45.832Z,130.12
2023-03-01T09:15:35.907Z,127.75
2023-03-01T09:16:26.023Z,135.30
2023-03-01T09:17:16.023Z,136.09
2023-03-01T09:18:06.364Z,132.77
2023-03-01T09:18:56.414Z,131.28
2023-03-01T09:19:46.462Z,134.08
2023-03-01T09:20:36.512Z,130.88
2023-03-01T09:21:39.456Z,128.21
2023-03-01T09:22:17.618Z,127.64
2023-03-01T09:23:06.672Z,128.39
2023-03-01T09:23:56.685Z,127.38
2023-03-01T09:24:46.787Z,132.89
2023-03-01T09:25:36.801Z,139.39
2023-03-01T09:26:26.877Z,139.21
2023-03-01T09:27:16.904Z,141.62
2023-03-01T09:28:07.131Z,139.87
2023-03-01T09:28:57.170Z,139.27
2023-03-01T09:29:47.221Z,134.95
2023-03-01T09:30:37.279Z,135.13
2023-03-01T09:31:27.336Z,135.46
2023-03-01T09:32:17.436Z,131.81
2023-03-01T09:33:07.424Z,128.09
2023-03-01T09:33:57.463Z,131.45
2023-03-01T09:34:47.522Z,129.54
2023-03-01T09:35:37.580Z,129.59
2023-03-01T09:36:27.682Z,129.87
2023-03-01T09:37:17.679Z,126.96
2023-03-01T09:38:07.754Z,123.63
2023-03-01T09:38:57.821Z,124.09
2023-03-01T09:39:47.918Z,127.34
2023-03-01T09:40:37.956Z,124.95
2023-03-01T09:41:28.004Z,118.11
2023-03-01T09:42:18.252Z,120.81
2023-03-01T09:43:08.344Z,120.66
2023-03-01T09:43:58.365Z,117.40
2023-03-01T09:44:48.718Z,117.44
2023-03-01T09:45:38.735Z,116.51
2023-03-01T09:46:28.841Z,117.65
2023-03-01T09:47:18.881Z,118.64
2023-03-01T09:48:08.943Z,120.04
2023-03-01T09:48:58.988Z,120.14
2023-03-01T09:49:49.093Z,124.07
2023-03-01T09:50:39.123Z,121.07
2023-03-01T09:51:29.184Z,125.51
2023-03-01T09:52:19.465Z,120.59
2023-03-01T09:53:09.500Z,121.98
2023-03-01T09:53:59.563Z,119.22
2023-03-01T09:54:49.591Z,116.24
2023-03-01T09:55:39.618Z,116.85
2023-03-01T09:56:30.005Z,116.32
2023-03-01T09:57:19.703Z,117.99
2023-03-01T09:58:09.751Z,115.44
2023-03-01T09:58:59.917Z,121.04
2023-03-01T09:59:49.994Z,118.64
2023-03-01T10:00:40.032Z,117.03
2023-03-01T10:01:30.658Z,119.44
2023-03-01T10:02:20.424Z,119.10
2023-03-01T10:03:10.479Z,120.53
2023-03-01T10:04:00.525Z,117.23
2023-03-01T10:04:50.600Z,118.78
2023-03-01T10:05:40.592Z,116.98
2023-03-01T10:06:35.385Z,118.21
2023-03-01T10:07:20.769Z,118.25
2023-03-01T10:08:10.781Z,116.78
2023-03-01T10:09:00.813Z,117.71
2023-03-01T10:09:50.900Z,114.57
2023-03-01T10:10:40.916Z,115.64
2023-03-01T10:11:30.991Z,115.88
2023-03-01T10:12:21.016Z,113.77
2023-03-01T10:13:11.060Z,113.93
2023-03-01T10:14:01.098Z,115.05
2023-03-01T10:14:51.181Z,111.97
2023-03-01T10:15:41.269Z,119.84
2023-03-01T10:16:31.269Z,113.97
2023-03-01T10:17:21.305Z,114.92
2023-03-01T10:18:11.386Z,114.45
2023-03-01T10:19:01.426Z,109.60
2023-03-01T10:19:51.514Z,111.66
2023-03-01T10:20:41.794Z,109.86
2023-03-01T10:21:32.193Z,112.66
2023-03-01T10:22:21.921Z,113.17
2023-03-01T10:23:11.974Z,111.77
2023-03-01T10:24:02.019Z,109.29
2023-03-01T10:24:52.120Z,109.57